createdAt,value
2022-08-07T00:01:43.331Z,14.60
2022-08-07T00:06:29.517Z,14.70
2022-08-07T00:16:50.285Z,14.80
2022-08-07T00:21:57.027Z,14.30
2022-08-07T00:27:07.167Z,14.50
2022-08-07T00:37:18.333Z,14.70
2022-08-07T00:42:29.092Z,14.60
2022-08-07T00:48:09.096Z,14.80
2022-08-07T00:57:56.412Z,14.30
2022-08-07T01:02:58.269Z,14.20
2022-08-07T01:08:00.237Z,14.40
2022-08-07T01:18:05.616Z,13.80
2022-08-07T01:23:13.102Z,14.10
2022-08-07T01:28:15.274Z,14.30
2022-08-07T01:33:17.371Z,14.60
2022-08-07T01:38:24.901Z,14.30
2022-08-07T01:54:12.706Z,14.00
2022-08-07T02:04:56.273Z,14.10
2022-08-07T02:10:14.473Z,14.10
2022-08-07T02:20:24.591Z,14.00
2022-08-07T02:26:10.751Z,13.90
2022-08-07T02:30:52.320Z,13.80
2022-08-07T02:46:46.543Z,13.30
2022-08-07T02:51:52.232Z,13.30
2022-08-07T02:56:56.306Z,13.70
2022-08-07T03:22:30.378Z,13.60
2022-08-07T03:32:58.660Z,13.50
2022-08-07T03:38:04.762Z,13.50
2022-08-07T03:43:10.109Z,13.40
2022-08-07T03:48:16.093Z,13.40
2022-08-07T03:53:17.828Z,13.40
2022-08-07T03:59:05.171Z,13.30
2022-08-07T04:03:53.223Z,13.40
2022-08-07T04:08:57.289Z,13.50
2022-08-07T04:14:33.243Z,13.20
2022-08-07T04:19:26.275Z,13.40
2022-08-07T04:24:49.688Z,13.20
2022-08-07T04:30:01.650Z,13.30
2022-08-07T04:35:07.198Z,12.90
2022-08-07T04:40:13.328Z,12.90
2022-08-07T04:45:20.971Z,13.00
2022-08-07T04:51:00.236Z,13.10
2022-08-07T04:58:11.261Z,13.10
2022-08-07T05:02:08.989Z,13.30
2022-08-07T05:07:36.977Z,13.50
2022-08-07T05:12:58.373Z,13.30
2022-08-07T05:18:20.088Z,13.30
2022-08-07T05:23:36.248Z,13.30
2022-08-07T05:28:40.605Z,13.30
2022-08-07T05:33:51.280Z,13.50
2022-08-07T05:39:08.943Z,13.40
2022-08-07T05:44:30.130Z,13.30
2022-08-07T05:49:40.855Z,13.60
2022-08-07T05:54:44.389Z,13.60
2022-08-07T06:00:01.256Z,14.00
2022-08-07T06:05:10.919Z,14.20
2022-08-07T06:10:17.624Z,14.80
2022-08-07T06:15:22.444Z,14.80
2022-08-07T06:20:50.859Z,15.00
2022-08-07T06:26:06.544Z,15.40
2022-08-07T06:31:08.879Z,16.10
2022-08-07T06:36:13.916Z,16.70
2022-08-07T06:42:03.033Z,17.00
2022-08-07T06:47:10.379Z,17.20
2022-08-07T06:52:17.229Z,17.40
2022-08-07T06:57:43.640Z,17.60
2022-08-07T07:02:57.320Z,17.80
2022-08-07T07:08:03.998Z,18.00
2022-08-07T07:13:56.008Z,18.20
2022-08-07T07:18:49.570Z,18.60
2022-08-07T07:24:09.835Z,18.80
2022-08-07T07:29:40.024Z,19.00
2022-08-07T07:34:42.163Z,19.30
2022-08-07T07:39:54.545Z,19.50
2022-08-07T07:44:59.589Z,19.80
2022-08-07T07:50:36.409Z,20.00
2022-08-07T07:55:27.771Z,20.40
2022-08-07T08:00:41.246Z,20.60
2022-08-07T08:05:54.553Z,20.80
2022-08-07T08:10:57.893Z,20.90
2022-08-07T08:16:02.646Z,21.00
2022-08-07T08:21:07.539Z,21.30
2022-08-07T08:26:32.688Z,21.50
2022-08-07T08:32:16.802Z,21.50
2022-08-07T08:36:59.960Z,21.60
2022-08-07T08:42:10.300Z,22.00
2022-08-07T08:47:20.017Z,22.10
2022-08-07T08:52:54.097Z,22.40
2022-08-07T08:58:28.346Z,22.30
2022-08-07T09:03:52.714Z,22.40
2022-08-07T09:09:09.694Z,22.40
2022-08-07T09:14:36.299Z,22.70
2022-08-07T09:20:34.715Z,23.00
2022-08-07T09:26:06.516Z,22.90
2022-08-07T09:32:17.134Z,23.10
2022-08-07T09:37:47.812Z,23.30
2022-08-07T09:43:11.903Z,23.30
2022-08-07T09:50:02.397Z,23.60
2022-08-07T09:54:16.834Z,23.70
2022-08-07T09:59:37.051Z,23.60
2022-08-07T10:05:12.370Z,23.80
2022-08-07T10:10:28.528Z,23.50
2022-08-07T10:15:46.561Z,23.40
2022-08-07T10:21:50.689Z,23.40
2022-08-07T10:27:15.669Z,23.90
2022-08-07T10:32:51.692Z,24.10
2022-08-07T10:38:09.869Z,24.10
2022-08-07T10:43:34.200Z,24.30
2022-08-07T10:48:46.589Z,24.60
2022-08-07T10:54:03.836Z,24.40
2022-08-07T10:59:37.304Z,24.40
2022-08-07T11:05:14.860Z,24.70
2022-08-07T11:10:40.959Z,24.80
2022-08-07T11:15:54.409Z,24.90
2022-08-07T11:21:07.710Z,25.50
2022-08-07T11:27:01.930Z,25.70
2022-08-07T11:32:15.230Z,25.20
2022-08-07T11:37:57.778Z,25.20
2022-08-07T11:43:29.747Z,25.80
2022-08-07T11:49:50.076Z,26.10
2022-08-07T11:54:56.451Z,26.00
2022-08-07T12:00:19.648Z,26.10
2022-08-07T12:05:49.348Z,26.50
2022-08-07T12:11:21.072Z,25.90
2022-08-07T12:16:36.165Z,25.90
2022-08-07T12:22:37.097Z,25.40
2022-08-07T12:27:28.063Z,25.20
2022-08-07T12:33:18.931Z,25.40
2022-08-07T12:38:42.513Z,25.90
2022-08-07T12:44:04.465Z,26.10
2022-08-07T12:49:44.790Z,24.90
2022-08-07T12:55:05.091Z,26.00
2022-08-07T13:00:20.832Z,26.10
2022-08-07T13:06:21.506Z,26.20
2022-08-07T13:12:03.107Z,26.50
2022-08-07T13:17:40.979Z,26.10
2022-08-07T13:23:00.071Z,26.10
2022-08-07T13:28:24.107Z,26.70
2022-08-07T13:34:30.292Z,24.50
2022-08-07T13:39:49.720Z,24.00
2022-08-07T13:45:11.817Z,24.20
2022-08-07T13:50:34.506Z,25.20
2022-08-07T13:55:37.171Z,25.20
2022-08-07T14:00:54.042Z,25.10
2022-08-07T14:05:57.421Z,25.80
2022-08-07T14:11:14.868Z,25.50
2022-08-07T14:16:27.110Z,25.70
2022-08-07T14:22:41.264Z,26.30
2022-08-07T14:28:09.314Z,26.00
2022-08-07T14:32:29.947Z,25.30
2022-08-07T14:37:39.001Z,25.20
2022-08-07T14:43:01.383Z,25.40
2022-08-07T14:48:08.119Z,24.50
2022-08-07T15:04:16.346Z,24.90
2022-08-07T15:09:57.712Z,24.40
2022-08-07T15:26:01.673Z,24.30
2022-08-07T15:31:07.998Z,24.90
2022-08-07T15:36:10.512Z,25.50
2022-08-07T15:42:42.329Z,24.80
2022-08-07T15:46:51.746Z,25.80
2022-08-07T15:57:00.814Z,25.00
2022-08-07T16:02:04.722Z,25.30
2022-08-07T16:08:33.270Z,25.90
2022-08-07T16:13:05.565Z,24.30
2022-08-07T16:18:43.572Z,24.90
2022-08-07T16:24:33.818Z,24.10
2022-08-07T16:30:10.861Z,23.60
2022-08-07T16:35:52.675Z,23.70
2022-08-07T16:41:02.226Z,23.80
2022-08-07T16:47:05.940Z,25.20
2022-08-07T16:52:52.533Z,24.30
2022-08-07T16:58:04.094Z,24.80
2022-08-07T17:03:17.467Z,24.80
2022-08-07T17:09:08.611Z,24.00
2022-08-07T17:14:18.357Z,24.30
2022-08-07T17:20:01.038Z,23.90
2022-08-07T17:25:02.771Z,23.70
2022-08-07T17:30:16.085Z,23.80
2022-08-07T17:35:50.661Z,23.30
2022-08-07T17:42:03.689Z,23.20
2022-08-07T17:47:38.497Z,23.60
2022-08-07T17:52:53.992Z,23.20
2022-08-07T17:58:05.509Z,23.20
2022-08-07T18:03:18.130Z,23.40
2022-08-07T18:09:01.073Z,23.10
2022-08-07T18:14:46.302Z,23.20
2022-08-07T18:21:08.043Z,23.20
2022-08-07T18:25:40.550Z,23.20
2022-08-07T18:30:53.370Z,23.10
2022-08-07T18:36:06.006Z,23.00
2022-08-07T18:41:44.724Z,23.00
2022-08-07T18:47:05.165Z,23.00
2022-08-07T18:52:37.768Z,22.50
2022-08-07T18:58:22.743Z,22.30
2022-08-07T19:03:35.572Z,22.20
2022-08-07T19:08:55.714Z,22.10
2022-08-07T19:14:25.029Z,21.80
2022-08-07T19:20:05.613Z,21.70
2022-08-07T19:26:23.078Z,21.50
2022-08-07T19:30:57.842Z,21.10
2022-08-07T19:36:11.193Z,21.10
2022-08-07T19:41:15.858Z,20.90
2022-08-07T19:46:26.777Z,20.60
2022-08-07T19:51:52.160Z,20.70
2022-08-07T19:57:52.192Z,20.50
2022-08-07T20:02:34.711Z,20.40
2022-08-07T20:07:45.984Z,20.40
2022-08-07T20:12:53.432Z,20.10
2022-08-07T20:18:03.512Z,19.70
2022-08-07T20:23:22.833Z,19.60
2022-08-07T20:28:33.689Z,19.50
2022-08-07T20:33:38.703Z,19.40
2022-08-07T20:38:59.858Z,19.10
2022-08-07T20:44:03.946Z,19.10
2022-08-07T20:49:57.853Z,19.20
2022-08-07T20:54:32.220Z,21.10
2022-08-07T21:00:05.675Z,19.00
2022-08-07T21:04:57.817Z,18.80
2022-08-07T21:10:02.282Z,18.70
2022-08-07T21:15:09.650Z,18.50
2022-08-07T21:20:29.474Z,18.30
2022-08-07T21:26:17.968Z,18.30
2022-08-07T21:31:50.163Z,18.10
2022-08-07T21:37:06.268Z,18.10
2022-08-07T21:47:50.121Z,17.80
2022-08-07T21:53:20.458Z,17.50
2022-08-07T21:58:38.465Z,17.70
2022-08-07T22:04:00.517Z,17.70
2022-08-07T22:09:13.686Z,17.20
2022-08-07T22:14:23.736Z,17.30
2022-08-07T22:20:00.500Z,17.20
2022-08-07T22:25:20.415Z,16.80
2022-08-07T22:30:36.032Z,16.80
2022-08-07T22:36:00.989Z,16.60
2022-08-07T22:41:07.453Z,16.90
2022-08-07T22:46:46.823Z,16.80
2022-08-07T22:52:36.902Z,16.10
2022-08-07T22:57:46.079Z,16.30
2022-08-07T23:03:23.966Z,16.00
2022-08-07T23:08:33.186Z,15.70
2022-08-07T23:14:15.145Z,16.60
2022-08-07T23:20:07.540Z,16.40
2022-08-07T23:25:09.274Z,15.80
2022-08-07T23:30:37.670Z,15.60
2022-08-07T23:35:42.121Z,15.80
2022-08-07T23:41:11.340Z,15.80
2022-08-07T23:46:43.320Z,15.60
2022-08-07T23:52:58.189Z,15.80
2022-08-07T23:57:14.066Z,15.90
